createdAt,value
2019-01-25T00:01:29.023Z,107.50
2019-01-25T00:09:11.484Z,94.20
2019-01-25T00:12:56.126Z,87.63
2019-01-25T00:16:40.779Z,100.73
2019-01-25T00:20:25.448Z,97.70
2019-01-25T00:24:10.359Z,92.10
2019-01-25T00:27:35.998Z,102.23
2019-01-25T00:31:20.637Z,101.93
2019-01-25T00:34:57.770Z,111.63
2019-01-25T00:42:32.671Z,97.33
2019-01-25T00:45:58.231Z,96.60
2019-01-25T00:49:43.137Z,103.07
2019-01-25T00:53:27.789Z,100.10
2019-01-25T00:57:12.443Z,95.90
2019-01-25T01:00:57.074Z,93.43
2019-01-25T01:04:41.700Z,103.13
2019-01-25T01:08:26.572Z,105.10
2019-01-25T01:12:11.181Z,92.07
2019-01-25T01:15:55.818Z,99.87
2019-01-25T01:20:01.600Z,101.27
2019-01-25T01:23:46.250Z,115.77
2019-01-25T01:27:31.203Z,99.33
2019-01-25T01:31:15.882Z,100.37
2019-01-25T01:34:53.301Z,95.73
2019-01-25T01:38:37.920Z,99.80
2019-01-25T01:42:22.601Z,99.30
2019-01-25T01:46:07.235Z,100.37
2019-01-25T01:49:51.916Z,113.93
2019-01-25T01:57:40.090Z,111.97
2019-01-25T02:01:24.726Z,100.43
2019-01-25T02:05:09.616Z,114.17
2019-01-25T02:08:54.266Z,103.27
2019-01-25T02:12:38.890Z,110.57
2019-01-25T02:16:23.571Z,110.27
2019-01-25T02:20:10.257Z,103.60
2019-01-25T02:23:54.898Z,91.17
2019-01-25T02:27:39.518Z,95.43
2019-01-25T02:31:24.198Z,108.80
2019-01-25T02:35:09.112Z,106.80
2019-01-25T02:38:46.120Z,103.70
2019-01-25T02:42:30.763Z,102.40
2019-01-25T02:46:15.391Z,103.13
2019-01-25T02:50:00.064Z,94.17
2019-01-25T02:53:44.879Z,100.13
2019-01-25T02:57:29.511Z,105.70
2019-01-25T03:01:14.158Z,107.97
2019-01-25T03:04:58.839Z,107.47
2019-01-25T03:08:43.784Z,104.43
2019-01-25T03:12:28.438Z,112.73
2019-01-25T03:16:13.451Z,97.73
2019-01-25T03:19:58.115Z,102.63
2019-01-25T03:27:46.196Z,110.40
2019-01-25T03:31:30.856Z,101.17
2019-01-25T03:35:08.320Z,105.13
2019-01-25T03:38:53.310Z,110.93
2019-01-25T03:42:37.984Z,105.80
2019-01-25T03:46:22.613Z,102.37
2019-01-25T03:50:08.364Z,103.40
2019-01-25T03:53:52.996Z,98.23
2019-01-25T03:57:37.620Z,102.90
2019-01-25T04:01:22.587Z,102.77
2019-01-25T04:05:08.806Z,106.87
2019-01-25T04:08:53.435Z,107.27
2019-01-25T04:12:38.088Z,110.60
2019-01-25T04:16:22.711Z,112.73
2019-01-25T04:20:09.629Z,103.67
2019-01-25T04:23:54.266Z,99.73
2019-01-25T04:27:38.969Z,111.57
2019-01-25T04:31:23.580Z,107.03
2019-01-25T04:35:08.303Z,106.27
2019-01-25T04:38:53.679Z,123.70
2019-01-25T04:42:38.333Z,122.17
2019-01-25T04:46:23.008Z,120.07
2019-01-25T04:54:00.479Z,115.63
2019-01-25T04:57:45.128Z,113.93
2019-01-25T05:01:29.776Z,103.60
2019-01-25T05:05:14.422Z,111.27
2019-01-25T05:08:59.057Z,99.13
2019-01-25T05:12:44.526Z,103.60
2019-01-25T05:16:29.160Z,106.87
2019-01-25T05:20:13.813Z,96.47
2019-01-25T05:23:58.415Z,103.73
2019-01-25T05:27:43.036Z,104.03
2019-01-25T05:31:29.347Z,94.80
2019-01-25T05:35:06.783Z,104.10
2019-01-25T05:38:51.409Z,109.67
2019-01-25T05:42:36.046Z,102.93
2019-01-25T05:46:20.647Z,107.23
2019-01-25T05:50:06.474Z,108.93
2019-01-25T05:54:10.215Z,113.80
2019-01-25T05:58:00.966Z,114.17
2019-01-25T06:01:46.984Z,109.43
2019-01-25T06:09:35.167Z,119.00
2019-01-25T06:21:00.393Z,111.57
2019-01-25T06:25:24.663Z,128.77
2019-01-25T06:29:09.474Z,125.30
2019-01-25T06:32:54.167Z,108.50
2019-01-25T06:36:31.142Z,126.70
2019-01-25T06:40:15.849Z,120.60
2019-01-25T06:44:00.494Z,137.37
2019-01-25T06:47:45.120Z,118.47
2019-01-25T06:51:29.738Z,124.27
2019-01-25T06:55:14.381Z,129.80
2019-01-25T07:03:04.742Z,135.03
2019-01-25T07:06:49.366Z,130.23
2019-01-25T07:10:33.999Z,137.53
2019-01-25T07:14:18.636Z,134.83
2019-01-25T07:18:03.300Z,139.00
2019-01-25T07:21:47.964Z,141.97
2019-01-25T07:25:31.987Z,149.80
2019-01-25T07:29:16.635Z,149.97
2019-01-25T07:33:01.299Z,162.87
2019-01-25T07:36:39.370Z,151.30
2019-01-25T07:44:14.018Z,157.47
2019-01-25T07:47:58.973Z,145.50
2019-01-25T07:51:43.645Z,151.37
2019-01-25T07:55:28.302Z,163.23
2019-01-25T07:59:13.269Z,157.30
2019-01-25T08:06:48.652Z,165.63
2019-01-25T08:10:53.858Z,148.07
2019-01-25T08:14:57.488Z,136.57
2019-01-25T08:18:34.765Z,160.00
2019-01-25T08:22:19.526Z,156.93
2019-01-25T08:26:04.228Z,149.93
2019-01-25T08:29:48.907Z,162.70
2019-01-25T08:33:33.587Z,166.83
2019-01-25T08:37:18.275Z,153.53
2019-01-25T08:44:53.909Z,164.70
2019-01-25T08:48:38.910Z,152.33
2019-01-25T08:52:04.552Z,160.97
2019-01-25T08:55:49.213Z,151.90
2019-01-25T08:59:33.903Z,158.47
2019-01-25T09:03:18.921Z,176.27
2019-01-25T09:07:03.569Z,157.83
2019-01-25T09:10:48.187Z,169.87
2019-01-25T09:14:32.847Z,159.47
2019-01-25T09:18:10.635Z,161.20
2019-01-25T09:21:55.519Z,148.40
2019-01-25T09:25:40.146Z,175.07
2019-01-25T09:29:24.765Z,162.90
2019-01-25T09:33:11.926Z,147.20
2019-01-25T09:36:56.546Z,158.27
2019-01-25T09:40:41.497Z,152.47
2019-01-25T09:44:26.133Z,130.67
2019-01-25T09:48:31.101Z,147.83
2019-01-25T09:56:06.028Z,149.40
2019-01-25T10:03:41.233Z,139.90
2019-01-25T10:11:15.403Z,145.03
2019-01-25T10:18:42.658Z,150.13
2019-01-25T10:30:10.374Z,141.57
2019-01-25T10:33:54.986Z,148.93
2019-01-25T10:37:39.658Z,131.87
2019-01-25T10:41:24.273Z,138.53
2019-01-25T10:45:13.871Z,125.37
2019-01-25T10:48:58.793Z,128.33
2019-01-25T10:52:43.500Z,144.23
2019-01-25T10:56:28.115Z,125.13
2019-01-25T11:00:15.136Z,125.60
2019-01-25T11:11:52.986Z,86.73
2019-01-25T11:15:37.622Z,68.23
2019-01-25T11:19:14.620Z,68.90
2019-01-25T11:26:49.130Z,65.97
2019-01-25T11:30:34.069Z,61.93
2019-01-25T11:34:18.720Z,52.07
2019-01-25T11:38:22.383Z,45.17
2019-01-25T11:42:07.027Z,46.47
2019-01-25T11:45:54.342Z,39.30
2019-01-25T11:53:28.260Z,39.73
2019-01-25T11:57:12.880Z,41.20
2019-01-25T12:00:57.544Z,37.13
2019-01-25T12:04:42.160Z,39.37
2019-01-25T12:08:27.328Z,41.70
2019-01-25T12:12:11.966Z,46.20
2019-01-25T12:19:53.274Z,38.43
2019-01-25T12:27:27.883Z,39.13
2019-01-25T12:31:12.512Z,39.93
2019-01-25T12:34:57.164Z,43.70
2019-01-25T12:43:04.181Z,43.03
2019-01-25T12:46:48.816Z,41.10
2019-01-25T12:50:42.568Z,42.07
2019-01-25T12:58:17.044Z,39.07
2019-01-25T13:02:20.516Z,39.00
2019-01-25T13:06:05.882Z,38.97
2019-01-25T13:13:41.218Z,33.73
2019-01-25T13:17:26.226Z,28.93
2019-01-25T13:21:03.285Z,30.30
2019-01-25T13:24:48.220Z,32.83
2019-01-25T13:28:33.166Z,28.27
2019-01-25T13:32:17.944Z,29.47
2019-01-25T13:36:21.420Z,27.17
2019-01-25T13:44:12.213Z,25.90
2019-01-25T13:47:56.867Z,30.77
2019-01-25T13:51:41.534Z,29.97
2019-01-25T13:55:26.696Z,31.97
2019-01-25T13:59:11.368Z,26.90
2019-01-25T14:02:56.021Z,27.53
2019-01-25T14:06:41.394Z,27.93
2019-01-25T14:10:28.327Z,26.40
2019-01-25T14:14:13.019Z,24.43
2019-01-25T14:17:57.680Z,27.37
2019-01-25T14:21:33.517Z,29.43
2019-01-25T14:25:18.195Z,29.47
2019-01-25T14:29:02.875Z,29.27
2019-01-25T14:32:47.613Z,25.03
2019-01-25T14:36:32.536Z,26.73
2019-01-25T14:40:17.266Z,27.43
2019-01-25T14:44:01.905Z,29.43
2019-01-25T14:47:46.190Z,26.13
2019-01-25T14:51:30.901Z,29.80
2019-01-25T14:55:15.592Z,26.20
2019-01-25T14:59:00.229Z,25.33
2019-01-25T15:02:44.913Z,24.30
2019-01-25T15:06:29.998Z,29.27
2019-01-25T15:10:08.843Z,29.77
2019-01-25T15:13:53.500Z,28.00
2019-01-25T15:17:38.159Z,28.10
2019-01-25T15:21:22.849Z,28.97
2019-01-25T15:25:26.424Z,31.43
2019-01-25T15:29:13.849Z,29.33
2019-01-25T15:37:24.271Z,29.60
2019-01-25T15:41:08.962Z,32.93
2019-01-25T15:44:36.278Z,36.87
2019-01-25T15:48:21.317Z,33.20
2019-01-25T15:52:06.172Z,33.77
2019-01-25T15:55:50.927Z,38.80
2019-01-25T15:59:35.711Z,34.93
2019-01-25T16:03:20.403Z,35.63
2019-01-25T16:07:05.738Z,45.47
2019-01-25T16:10:44.643Z,40.23
2019-01-25T16:14:29.444Z,43.70
2019-01-25T16:18:14.753Z,43.20
2019-01-25T16:21:59.479Z,43.03
2019-01-25T16:25:44.221Z,41.33
2019-01-25T16:29:28.268Z,43.37
2019-01-25T16:33:13.089Z,48.53
2019-01-25T16:36:57.700Z,49.60
2019-01-25T16:40:42.355Z,47.97
2019-01-25T16:44:27.081Z,51.87
2019-01-25T16:48:11.939Z,54.03
2019-01-25T16:51:56.906Z,56.17
2019-01-25T16:55:41.614Z,62.47
2019-01-25T16:59:45.963Z,61.60
2019-01-25T17:03:31.330Z,60.10
2019-01-25T17:07:16.086Z,68.03
2019-01-25T17:10:54.200Z,61.03
2019-01-25T17:14:39.077Z,57.13
2019-01-25T17:18:23.736Z,69.30
2019-01-25T17:22:08.453Z,56.83
2019-01-25T17:25:53.568Z,66.63
2019-01-25T17:29:38.266Z,67.20
2019-01-25T17:33:22.920Z,65.80
2019-01-25T17:37:07.625Z,67.93
2019-01-25T17:45:25.153Z,65.20
2019-01-25T17:49:10.094Z,64.67
2019-01-25T17:52:54.749Z,68.23
2019-01-25T17:56:39.435Z,64.40
2019-01-25T18:00:47.901Z,63.37
2019-01-25T18:04:32.579Z,61.50
2019-01-25T18:08:17.224Z,65.33
2019-01-25T18:11:54.302Z,61.37
2019-01-25T18:15:39.290Z,57.83
2019-01-25T18:19:24.262Z,58.10
2019-01-25T18:23:08.912Z,60.37
2019-01-25T18:26:34.670Z,65.07
2019-01-25T18:30:40.761Z,63.77
2019-01-25T18:34:25.537Z,61.47
2019-01-25T18:38:10.479Z,58.93
2019-01-25T18:41:55.171Z,61.10
2019-01-25T18:45:39.840Z,53.47
2019-01-25T18:49:24.925Z,63.47
2019-01-25T18:53:09.981Z,58.47
2019-01-25T18:56:55.365Z,53.87
2019-01-25T19:04:51.327Z,57.03
2019-01-25T19:08:16.977Z,63.70
2019-01-25T19:12:01.647Z,57.43
2019-01-25T19:15:46.348Z,54.13
2019-01-25T19:19:30.997Z,56.33
2019-01-25T19:23:15.736Z,58.40
2019-01-25T19:27:00.501Z,61.27
2019-01-25T19:30:46.108Z,52.63
2019-01-25T19:34:30.780Z,61.60
2019-01-25T19:38:17.925Z,61.37
2019-01-25T19:42:02.655Z,61.20
2019-01-25T19:45:47.574Z,54.57
2019-01-25T19:49:32.281Z,53.10
2019-01-25T19:53:35.957Z,62.90
2019-01-25T19:57:20.559Z,56.47
2019-01-25T20:01:05.322Z,57.80
2019-01-25T20:04:42.402Z,49.67
2019-01-25T20:08:27.054Z,48.17
2019-01-25T20:12:11.678Z,47.87
2019-01-25T20:15:56.288Z,54.80
2019-01-25T20:19:40.920Z,59.90
2019-01-25T20:27:29.190Z,47.90
2019-01-25T20:31:13.818Z,59.33
2019-01-25T20:34:58.480Z,54.67
2019-01-25T20:38:43.087Z,58.37
2019-01-25T20:42:28.064Z,57.30
2019-01-25T20:46:12.931Z,60.00
2019-01-25T20:49:57.548Z,54.60
2019-01-25T20:53:42.184Z,52.87
2019-01-25T21:01:30.399Z,51.23
2019-01-25T21:05:07.744Z,64.20
2019-01-25T21:08:52.384Z,49.03
2019-01-25T21:12:37.021Z,47.33
2019-01-25T21:16:21.675Z,43.53
2019-01-25T21:20:28.439Z,40.73
2019-01-25T21:28:16.614Z,38.73
2019-01-25T21:32:01.246Z,41.97
2019-01-25T21:35:45.881Z,38.43
2019-01-25T21:39:30.674Z,44.40
2019-01-25T21:43:14.765Z,36.13
2019-01-25T21:46:59.604Z,42.80
2019-01-25T21:50:37.681Z,44.07
2019-01-25T21:54:22.433Z,42.37
2019-01-25T21:58:25.905Z,44.87
2019-01-25T22:02:10.894Z,49.93
2019-01-25T22:05:48.379Z,43.43
2019-01-25T22:09:33.028Z,41.77
2019-01-25T22:13:36.642Z,46.77
2019-01-25T22:17:40.433Z,44.73
2019-01-25T22:21:25.291Z,52.03
2019-01-25T22:25:10.202Z,49.37
2019-01-25T22:28:55.210Z,50.47
2019-01-25T22:32:39.835Z,47.73
2019-01-25T22:36:24.511Z,53.23
2019-01-25T22:40:14.794Z,56.30
2019-01-25T22:43:59.399Z,60.60
2019-01-25T22:47:44.073Z,58.27
2019-01-25T22:51:20.983Z,52.97
2019-01-25T22:55:09.888Z,54.37
2019-01-25T22:58:54.511Z,55.10
2019-01-25T23:02:39.276Z,54.07
2019-01-25T23:06:36.084Z,64.80
2019-01-25T23:10:22.459Z,66.30
2019-01-25T23:14:07.474Z,63.73
2019-01-25T23:17:52.095Z,61.93
2019-01-25T23:21:36.721Z,59.63
2019-01-25T23:25:21.365Z,61.13
2019-01-25T23:29:06.203Z,60.53
2019-01-25T23:32:50.815Z,57.50
2019-01-25T23:36:35.459Z,63.33
2019-01-25T23:40:20.365Z,66.23
2019-01-25T23:44:05.014Z,62.60
2019-01-25T23:47:49.628Z,67.93
2019-01-25T23:51:26.715Z,72.60
2019-01-25T23:55:11.528Z,80.13
2019-01-25T23:58:56.159Z,80.67
